sensor_id;sensor_type;location;lat;lon;timestamp;temperature;humidity
62339;DHT22;48368;53.406;6.214;2023-09-18T00:00:23;17.00;99.90
62339;DHT22;48368;53.406;6.214;2023-09-18T00:02:49;17.00;99.90
62339;DHT22;48368;53.406;6.214;2023-09-18T00:05:14;17.00;99.90
62339;DHT22;48368;53.406;6.214;2023-09-18T00:07:44;17.00;99.90
62339;DHT22;48368;53.406;6.214;2023-09-18T00:10:11;17.00;99.90
62339;DHT22;48368;53.406;6.214;2023-09-18T00:12:37;16.90;99.90
62339;DHT22;48368;53.406;6.214;2023-09-18T00:15:04;17.00;99.90
62339;DHT22;48368;53.406;6.214;2023-09-18T00:17:31;17.00;99.90
62339;DHT22;48368;53.406;6.214;2023-09-18T00:19:57;16.90;99.90
62339;DHT22;48368;53.406;6.214;2023-09-18T00:22:23;17.00;99.90
62339;DHT22;48368;53.406;6.214;2023-09-18T00:24:50;17.00;99.90
62339;DHT22;48368;53.406;6.214;2023-09-18T00:27:15;16.90;99.90
62339;DHT22;48368;53.406;6.214;2023-09-18T00:29:42;16.90;99.90
62339;DHT22;48368;53.406;6.214;2023-09-18T00:32:07;16.90;99.90
62339;DHT22;48368;53.406;6.214;2023-09-18T00:34:33;16.80;99.90
62339;DHT22;48368;53.406;6.214;2023-09-18T00:36:59;16.80;99.90
62339;DHT22;48368;53.406;6.214;2023-09-18T00:39:25;16.80;99.90
62339;DHT22;48368;53.406;6.214;2023-09-18T00:41:51;16.80;99.90
62339;DHT22;48368;53.406;6.214;2023-09-18T00:44:24;16.80;99.90
62339;DHT22;48368;53.406;6.214;2023-09-18T00:46:51;16.80;99.90
62339;DHT22;48368;53.406;6.214;2023-09-18T00:49:18;16.70;99.90
62339;DHT22;48368;53.406;6.214;2023-09-18T00:51:44;16.80;99.90
62339;DHT22;48368;53.406;6.214;2023-09-18T00:54:11;16.70;99.90
62339;DHT22;48368;53.406;6.214;2023-09-18T00:56:37;16.70;99.90
62339;DHT22;48368;53.406;6.214;2023-09-18T00:59:02;16.70;99.90
62339;DHT22;48368;53.406;6.214;2023-09-18T01:01:28;16.70;99.90
62339;DHT22;48368;53.406;6.214;2023-09-18T01:03:56;16.70;99.90
62339;DHT22;48368;53.406;6.214;2023-09-18T01:06:25;16.70;99.90
62339;DHT22;48368;53.406;6.214;2023-09-18T01:08:53;16.70;99.90
62339;DHT22;48368;53.406;6.214;2023-09-18T01:11:30;16.80;99.90
62339;DHT22;48368;53.406;6.214;2023-09-18T01:14:07;16.80;99.90
62339;DHT22;48368;53.406;6.214;2023-09-18T01:17:01;16.80;99.90
62339;DHT22;48368;53.406;6.214;2023-09-18T01:19:42;16.80;99.90
62339;DHT22;48368;53.406;6.214;2023-09-18T01:22:15;16.70;99.90
62339;DHT22;48368;53.406;6.214;2023-09-18T01:24:43;16.80;99.90
62339;DHT22;48368;53.406;6.214;2023-09-18T01:27:12;16.70;99.90
62339;DHT22;48368;53.406;6.214;2023-09-18T01:29:46;16.80;99.90
62339;DHT22;48368;53.406;6.214;2023-09-18T01:32:12;16.70;99.90
62339;DHT22;48368;53.406;6.214;2023-09-18T01:34:50;16.70;99.90
62339;DHT22;48368;53.406;6.214;2023-09-18T01:37:19;16.70;99.90
62339;DHT22;48368;53.406;6.214;2023-09-18T01:39:47;16.70;99.90
62339;DHT22;48368;53.406;6.214;2023-09-18T01:42:13;16.60;99.90
62339;DHT22;48368;53.406;6.214;2023-09-18T01:44:41;16.60;99.90
62339;DHT22;48368;53.406;6.214;2023-09-18T01:47:09;16.60;99.90
62339;DHT22;48368;53.406;6.214;2023-09-18T01:49:37;16.60;99.90
62339;DHT22;48368;53.406;6.214;2023-09-18T01:52:05;16.70;99.90
62339;DHT22;48368;53.406;6.214;2023-09-18T01:54:31;16.60;99.90
62339;DHT22;48368;53.406;6.214;2023-09-18T01:56:57;16.50;99.90
62339;DHT22;48368;53.406;6.214;2023-09-18T01:59:23;16.60;99.90
62339;DHT22;48368;53.406;6.214;2023-09-18T02:01:50;16.60;99.90
62339;DHT22;48368;53.406;6.214;2023-09-18T02:04:17;16.60;99.90
62339;DHT22;48368;53.406;6.214;2023-09-18T02:06:43;16.50;99.90
62339;DHT22;48368;53.406;6.214;2023-09-18T02:09:09;16.60;99.90
62339;DHT22;48368;53.406;6.214;2023-09-18T02:11:40;16.60;99.90
62339;DHT22;48368;53.406;6.214;2023-09-18T02:14:07;16.60;99.90
62339;DHT22;48368;53.406;6.214;2023-09-18T02:16:35;16.60;99.90
62339;DHT22;48368;53.406;6.214;2023-09-18T02:19:02;16.70;99.90
62339;DHT22;48368;53.406;6.214;2023-09-18T02:21:28;16.60;99.90
62339;DHT22;48368;53.406;6.214;2023-09-18T02:23:54;16.60;99.90
62339;DHT22;48368;53.406;6.214;2023-09-18T02:26:21;16.60;99.90
62339;DHT22;48368;53.406;6.214;2023-09-18T02:28:47;16.60;99.90
62339;DHT22;48368;53.406;6.214;2023-09-18T02:31:13;16.70;99.90
62339;DHT22;48368;53.406;6.214;2023-09-18T02:33:39;16.70;99.90
62339;DHT22;48368;53.406;6.214;2023-09-18T02:36:05;16.70;99.90
62339;DHT22;48368;53.406;6.214;2023-09-18T02:38:32;16.70;99.90
62339;DHT22;48368;53.406;6.214;2023-09-18T02:40:58;16.60;99.90
62339;DHT22;48368;53.406;6.214;2023-09-18T02:43:24;16.70;99.90
62339;DHT22;48368;53.406;6.214;2023-09-18T02:45:50;16.60;99.90
62339;DHT22;48368;53.406;6.214;2023-09-18T02:48:16;16.60;99.90
62339;DHT22;48368;53.406;6.214;2023-09-18T02:50:42;16.70;99.90
62339;DHT22;48368;53.406;6.214;2023-09-18T02:53:12;16.70;99.90
62339;DHT22;48368;53.406;6.214;2023-09-18T02:55:41;16.60;99.90
62339;DHT22;48368;53.406;6.214;2023-09-18T02:58:07;16.60;99.90
62339;DHT22;48368;53.406;6.214;2023-09-18T03:00:44;16.70;99.90
62339;DHT22;48368;53.406;6.214;2023-09-18T03:03:10;16.80;99.90
62339;DHT22;48368;53.406;6.214;2023-09-18T03:05:36;16.70;99.90
62339;DHT22;48368;53.406;6.214;2023-09-18T03:08:02;16.80;99.90
62339;DHT22;48368;53.406;6.214;2023-09-18T03:10:33;16.80;99.90
62339;DHT22;48368;53.406;6.214;2023-09-18T03:12:59;16.80;99.90
62339;DHT22;48368;53.406;6.214;2023-09-18T03:15:25;16.90;99.90
62339;DHT22;48368;53.406;6.214;2023-09-18T03:17:51;16.80;99.90
62339;DHT22;48368;53.406;6.214;2023-09-18T03:20:16;17.00;99.90
62339;DHT22;48368;53.406;6.214;2023-09-18T03:22:42;16.90;99.90
62339;DHT22;48368;53.406;6.214;2023-09-18T03:25:08;16.90;99.90
62339;DHT22;48368;53.406;6.214;2023-09-18T03:27:33;16.90;99.90
62339;DHT22;48368;53.406;6.214;2023-09-18T03:29:59;17.00;99.90
62339;DHT22;48368;53.406;6.214;2023-09-18T03:32:24;17.00;99.90
62339;DHT22;48368;53.406;6.214;2023-09-18T03:34:51;17.00;99.90
62339;DHT22;48368;53.406;6.214;2023-09-18T03:37:17;17.00;99.90
62339;DHT22;48368;53.406;6.214;2023-09-18T03:39:42;17.00;99.90
62339;DHT22;48368;53.406;6.214;2023-09-18T03:42:08;17.00;99.90
62339;DHT22;48368;53.406;6.214;2023-09-18T03:44:33;17.10;99.90
62339;DHT22;48368;53.406;6.214;2023-09-18T03:46:59;17.10;99.90
62339;DHT22;48368;53.406;6.214;2023-09-18T03:49:25;17.10;99.90
62339;DHT22;48368;53.406;6.214;2023-09-18T03:51:50;17.20;99.90
62339;DHT22;48368;53.406;6.214;2023-09-18T03:54:16;17.20;99.90
62339;DHT22;48368;53.406;6.214;2023-09-18T03:56:41;17.20;99.90
62339;DHT22;48368;53.406;6.214;2023-09-18T03:59:07;17.20;99.90
62339;DHT22;48368;53.406;6.214;2023-09-18T04:01:33;17.20;99.90
62339;DHT22;48368;53.406;6.214;2023-09-18T04:03:58;17.20;99.90
62339;DHT22;48368;53.406;6.214;2023-09-18T04:06:35;17.20;99.90
62339;DHT22;48368;53.406;6.214;2023-09-18T04:09:00;17.30;99.90
62339;DHT22;48368;53.406;6.214;2023-09-18T04:11:26;17.30;99.90
62339;DHT22;48368;53.406;6.214;2023-09-18T04:13:52;17.30;99.90
62339;DHT22;48368;53.406;6.214;2023-09-18T04:16:17;17.30;99.90
62339;DHT22;48368;53.406;6.214;2023-09-18T04:18:43;17.30;99.90
62339;DHT22;48368;53.406;6.214;2023-09-18T04:21:09;17.30;99.90
62339;DHT22;48368;53.406;6.214;2023-09-18T04:23:35;17.30;99.90
62339;DHT22;48368;53.406;6.214;2023-09-18T04:26:02;17.30;99.90
62339;DHT22;48368;53.406;6.214;2023-09-18T04:28:27;17.30;99.90
62339;DHT22;48368;53.406;6.214;2023-09-18T04:30:53;17.40;99.90
62339;DHT22;48368;53.406;6.214;2023-09-18T04:33:20;17.30;99.90
62339;DHT22;48368;53.406;6.214;2023-09-18T04:35:46;17.40;99.90
62339;DHT22;48368;53.406;6.214;2023-09-18T04:38:12;17.30;99.90
62339;DHT22;48368;53.406;6.214;2023-09-18T04:40:40;17.40;99.90
62339;DHT22;48368;53.406;6.214;2023-09-18T04:43:06;17.40;99.90
62339;DHT22;48368;53.406;6.214;2023-09-18T04:45:32;17.40;99.90
62339;DHT22;48368;53.406;6.214;2023-09-18T04:47:58;17.40;99.90
62339;DHT22;48368;53.406;6.214;2023-09-18T04:50:23;17.30;99.90
62339;DHT22;48368;53.406;6.214;2023-09-18T04:52:52;17.40;99.90
62339;DHT22;48368;53.406;6.214;2023-09-18T04:55:20;17.40;99.90
62339;DHT22;48368;53.406;6.214;2023-09-18T04:57:45;17.40;99.90
62339;DHT22;48368;53.406;6.214;2023-09-18T05:00:14;17.30;99.90
62339;DHT22;48368;53.406;6.214;2023-09-18T05:02:40;17.30;99.90
62339;DHT22;48368;53.406;6.214;2023-09-18T05:05:06;17.40;99.90
62339;DHT22;48368;53.406;6.214;2023-09-18T05:07:34;17.40;99.90
62339;DHT22;48368;53.406;6.214;2023-09-18T05:10:00;17.40;99.90
62339;DHT22;48368;53.406;6.214;2023-09-18T05:12:25;17.40;99.90
62339;DHT22;48368;53.406;6.214;2023-09-18T05:14:51;17.40;99.90
62339;DHT22;48368;53.406;6.214;2023-09-18T05:17:17;17.40;99.90
62339;DHT22;48368;53.406;6.214;2023-09-18T05:19:44;17.40;99.90
62339;DHT22;48368;53.406;6.214;2023-09-18T05:22:10;17.50;99.90
62339;DHT22;48368;53.406;6.214;2023-09-18T05:24:37;17.50;99.90
62339;DHT22;48368;53.406;6.214;2023-09-18T05:27:03;17.50;99.90
62339;DHT22;48368;53.406;6.214;2023-09-18T05:29:29;17.50;99.90
62339;DHT22;48368;53.406;6.214;2023-09-18T05:31:54;17.50;99.90
62339;DHT22;48368;53.406;6.214;2023-09-18T05:34:20;17.50;99.90
62339;DHT22;48368;53.406;6.214;2023-09-18T05:36:45;17.50;99.90
62339;DHT22;48368;53.406;6.214;2023-09-18T05:39:11;17.50;99.90
62339;DHT22;48368;53.406;6.214;2023-09-18T05:41:41;17.50;99.90
62339;DHT22;48368;53.406;6.214;2023-09-18T05:44:07;17.50;99.90
62339;DHT22;48368;53.406;6.214;2023-09-18T05:46:36;17.50;99.90
62339;DHT22;48368;53.406;6.214;2023-09-18T05:49:03;17.50;99.90
62339;DHT22;48368;53.406;6.214;2023-09-18T05:51:30;17.50;99.90
62339;DHT22;48368;53.406;6.214;2023-09-18T05:53:56;17.60;99.90
62339;DHT22;48368;53.406;6.214;2023-09-18T05:56:22;17.50;99.90
62339;DHT22;48368;53.406;6.214;2023-09-18T05:58:49;17.60;99.90
62339;DHT22;48368;53.406;6.214;2023-09-18T06:01:15;17.50;99.90
62339;DHT22;48368;53.406;6.214;2023-09-18T06:03:40;17.60;99.90
62339;DHT22;48368;53.406;6.214;2023-09-18T06:06:09;17.50;99.90
62339;DHT22;48368;53.406;6.214;2023-09-18T06:08:34;17.60;99.90
62339;DHT22;48368;53.406;6.214;2023-09-18T06:11:00;17.60;99.90
62339;DHT22;48368;53.406;6.214;2023-09-18T06:13:25;17.60;99.90
62339;DHT22;48368;53.406;6.214;2023-09-18T06:15:53;17.70;99.90
62339;DHT22;48368;53.406;6.214;2023-09-18T06:18:22;17.70;99.90
62339;DHT22;48368;53.406;6.214;2023-09-18T06:20:48;17.60;99.90
62339;DHT22;48368;53.406;6.214;2023-09-18T06:23:14;17.70;99.90
62339;DHT22;48368;53.406;6.214;2023-09-18T06:25:40;17.70;99.90
62339;DHT22;48368;53.406;6.214;2023-09-18T06:28:06;17.70;99.90
62339;DHT22;48368;53.406;6.214;2023-09-18T06:30:35;17.70;99.90
62339;DHT22;48368;53.406;6.214;2023-09-18T06:33:01;17.70;99.90
62339;DHT22;48368;53.406;6.214;2023-09-18T06:35:30;17.80;99.90
62339;DHT22;48368;53.406;6.214;2023-09-18T06:37:56;17.80;99.90
62339;DHT22;48368;53.406;6.214;2023-09-18T06:40:26;17.80;99.90
62339;DHT22;48368;53.406;6.214;2023-09-18T06:42:51;17.90;99.90
62339;DHT22;48368;53.406;6.214;2023-09-18T06:45:23;17.90;99.90
62339;DHT22;48368;53.406;6.214;2023-09-18T06:47:48;17.80;99.90
62339;DHT22;48368;53.406;6.214;2023-09-18T06:50:15;17.90;99.90
62339;DHT22;48368;53.406;6.214;2023-09-18T06:52:41;17.90;99.90
62339;DHT22;48368;53.406;6.214;2023-09-18T06:55:06;17.90;99.90
62339;DHT22;48368;53.406;6.214;2023-09-18T06:57:35;18.00;99.90
62339;DHT22;48368;53.406;6.214;2023-09-18T07:00:01;18.00;99.90
62339;DHT22;48368;53.406;6.214;2023-09-18T07:02:28;18.10;99.90
62339;DHT22;48368;53.406;6.214;2023-09-18T07:04:54;18.00;99.90
62339;DHT22;48368;53.406;6.214;2023-09-18T07:07:20;18.10;99.90
62339;DHT22;48368;53.406;6.214;2023-09-18T07:09:53;18.10;99.90
62339;DHT22;48368;53.406;6.214;2023-09-18T07:12:19;18.10;99.90
62339;DHT22;48368;53.406;6.214;2023-09-18T07:14:48;18.10;99.90
62339;DHT22;48368;53.406;6.214;2023-09-18T07:17:16;18.10;99.90
62339;DHT22;48368;53.406;6.214;2023-09-18T07:19:41;18.10;99.90
62339;DHT22;48368;53.406;6.214;2023-09-18T07:22:09;18.10;99.90
62339;DHT22;48368;53.406;6.214;2023-09-18T07:24:35;18.10;99.90
62339;DHT22;48368;53.406;6.214;2023-09-18T07:27:01;18.20;99.90
62339;DHT22;48368;53.406;6.214;2023-09-18T07:29:27;18.20;99.90
62339;DHT22;48368;53.406;6.214;2023-09-18T07:31:54;18.20;99.90
62339;DHT22;48368;53.406;6.214;2023-09-18T07:34:20;18.20;99.90
62339;DHT22;48368;53.406;6.214;2023-09-18T07:36:45;18.20;99.90
62339;DHT22;48368;53.406;6.214;2023-09-18T07:39:11;18.20;99.90
62339;DHT22;48368;53.406;6.214;2023-09-18T07:41:37;18.10;99.90
62339;DHT22;48368;53.406;6.214;2023-09-18T07:44:03;18.10;99.90
62339;DHT22;48368;53.406;6.214;2023-09-18T07:46:29;18.10;99.90
62339;DHT22;48368;53.406;6.214;2023-09-18T07:48:58;18.10;99.90
62339;DHT22;48368;53.406;6.214;2023-09-18T07:51:27;18.10;99.90
62339;DHT22;48368;53.406;6.214;2023-09-18T07:53:53;18.10;99.90
62339;DHT22;48368;53.406;6.214;2023-09-18T07:56:18;18.10;99.90
62339;DHT22;48368;53.406;6.214;2023-09-18T07:58:47;18.10;99.90
62339;DHT22;48368;53.406;6.214;2023-09-18T08:01:13;18.00;99.90
62339;DHT22;48368;53.406;6.214;2023-09-18T08:03:39;18.10;99.90
62339;DHT22;48368;53.406;6.214;2023-09-18T08:06:05;18.00;99.90
62339;DHT22;48368;53.406;6.214;2023-09-18T08:08:31;18.10;99.90
62339;DHT22;48368;53.406;6.214;2023-09-18T08:11:00;18.10;99.90
62339;DHT22;48368;53.406;6.214;2023-09-18T08:13:25;18.00;99.90
62339;DHT22;48368;53.406;6.214;2023-09-18T08:15:51;18.00;99.90
62339;DHT22;48368;53.406;6.214;2023-09-18T08:18:18;18.10;99.90
62339;DHT22;48368;53.406;6.214;2023-09-18T08:20:43;18.00;99.90
62339;DHT22;48368;53.406;6.214;2023-09-18T08:23:12;18.10;99.90
62339;DHT22;48368;53.406;6.214;2023-09-18T08:25:38;18.10;99.90
62339;DHT22;48368;53.406;6.214;2023-09-18T08:28:06;18.10;99.90
62339;DHT22;48368;53.406;6.214;2023-09-18T08:30:32;18.10;99.90
62339;DHT22;48368;53.406;6.214;2023-09-18T08:32:58;18.00;99.90
62339;DHT22;48368;53.406;6.214;2023-09-18T08:35:24;18.10;99.90
62339;DHT22;48368;53.406;6.214;2023-09-18T08:37:54;18.00;99.90
62339;DHT22;48368;53.406;6.214;2023-09-18T08:40:23;18.10;99.90
62339;DHT22;48368;53.406;6.214;2023-09-18T08:42:51;18.10;99.90
62339;DHT22;48368;53.406;6.214;2023-09-18T08:45:25;18.00;99.90
62339;DHT22;48368;53.406;6.214;2023-09-18T08:47:55;18.10;99.90
62339;DHT22;48368;53.406;6.214;2023-09-18T08:50:22;18.10;99.90
62339;DHT22;48368;53.406;6.214;2023-09-18T08:52:49;18.10;99.90
62339;DHT22;48368;53.406;6.214;2023-09-18T08:55:16;18.10;99.90
62339;DHT22;48368;53.406;6.214;2023-09-18T08:57:42;18.10;99.90
62339;DHT22;48368;53.406;6.214;2023-09-18T09:00:11;18.20;99.90
62339;DHT22;48368;53.406;6.214;2023-09-18T09:02:43;18.10;99.90
62339;DHT22;48368;53.406;6.214;2023-09-18T09:05:09;18.20;99.90
62339;DHT22;48368;53.406;6.214;2023-09-18T09:07:35;18.20;99.90
62339;DHT22;48368;53.406;6.214;2023-09-18T09:10:04;18.30;99.90
62339;DHT22;48368;53.406;6.214;2023-09-18T09:12:58;18.30;99.90
62339;DHT22;48368;53.406;6.214;2023-09-18T09:15:47;18.30;99.90
62339;DHT22;48368;53.406;6.214;2023-09-18T09:18:13;18.30;99.90
62339;DHT22;48368;53.406;6.214;2023-09-18T09:20:56;18.40;99.90
62339;DHT22;48368;53.406;6.214;2023-09-18T09:23:51;18.50;99.90
62339;DHT22;48368;53.406;6.214;2023-09-18T09:26:19;18.40;99.90
62339;DHT22;48368;53.406;6.214;2023-09-18T09:28:46;18.50;99.90
62339;DHT22;48368;53.406;6.214;2023-09-18T09:31:12;18.50;99.90
62339;DHT22;48368;53.406;6.214;2023-09-18T09:33:51;18.60;99.90
62339;DHT22;48368;53.406;6.214;2023-09-18T09:36:19;18.60;99.90
62339;DHT22;48368;53.406;6.214;2023-09-18T09:38:45;18.60;99.90
62339;DHT22;48368;53.406;6.214;2023-09-18T09:41:14;18.70;99.90
62339;DHT22;48368;53.406;6.214;2023-09-18T09:43:43;18.70;99.90
62339;DHT22;48368;53.406;6.214;2023-09-18T09:46:16;18.80;99.90
62339;DHT22;48368;53.406;6.214;2023-09-18T09:49:00;18.80;99.90
62339;DHT22;48368;53.406;6.214;2023-09-18T09:51:27;18.80;99.90
62339;DHT22;48368;53.406;6.214;2023-09-18T09:53:53;18.80;99.90
62339;DHT22;48368;53.406;6.214;2023-09-18T09:56:19;18.90;99.90
62339;DHT22;48368;53.406;6.214;2023-09-18T09:59:06;18.90;99.90
62339;DHT22;48368;53.406;6.214;2023-09-18T10:01:38;19.00;99.90
62339;DHT22;48368;53.406;6.214;2023-09-18T10:04:16;19.00;99.90
62339;DHT22;48368;53.406;6.214;2023-09-18T10:06:45;19.10;99.90
62339;DHT22;48368;53.406;6.214;2023-09-18T10:09:14;19.20;99.90
62339;DHT22;48368;53.406;6.214;2023-09-18T10:11:44;19.20;99.90
62339;DHT22;48368;53.406;6.214;2023-09-18T10:14:21;19.20;99.90
62339;DHT22;48368;53.406;6.214;2023-09-18T10:16:53;19.30;99.90
62339;DHT22;48368;53.406;6.214;2023-09-18T10:19:38;19.40;99.90
62339;DHT22;48368;53.406;6.214;2023-09-18T10:22:30;19.50;99.90
62339;DHT22;48368;53.406;6.214;2023-09-18T10:25:23;19.60;99.90
62339;DHT22;48368;53.406;6.214;2023-09-18T10:28:01;19.70;99.90
62339;DHT22;48368;53.406;6.214;2023-09-18T10:30:33;19.80;99.90
62339;DHT22;48368;53.406;6.214;2023-09-18T10:33:00;19.80;99.90
62339;DHT22;48368;53.406;6.214;2023-09-18T10:35:27;20.00;99.90
62339;DHT22;48368;53.406;6.214;2023-09-18T10:37:54;19.90;99.90
62339;DHT22;48368;53.406;6.214;2023-09-18T10:40:21;20.00;99.90
62339;DHT22;48368;53.406;6.214;2023-09-18T10:42:48;20.10;99.90
62339;DHT22;48368;53.406;6.214;2023-09-18T10:45:15;20.30;99.90
62339;DHT22;48368;53.406;6.214;2023-09-18T10:47:43;20.20;99.90
62339;DHT22;48368;53.406;6.214;2023-09-18T10:50:25;20.20;99.90
62339;DHT22;48368;53.406;6.214;2023-09-18T10:52:51;20.10;99.90
62339;DHT22;48368;53.406;6.214;2023-09-18T10:55:17;20.20;99.90
62339;DHT22;48368;53.406;6.214;2023-09-18T10:57:53;20.30;99.90
62339;DHT22;48368;53.406;6.214;2023-09-18T11:00:24;20.40;99.90
62339;DHT22;48368;53.406;6.214;2023-09-18T11:03:15;20.50;99.90
62339;DHT22;48368;53.406;6.214;2023-09-18T11:05:40;20.50;99.90
62339;DHT22;48368;53.406;6.214;2023-09-18T11:08:34;20.50;99.90
62339;DHT22;48368;53.406;6.214;2023-09-18T11:11:03;20.60;99.90
62339;DHT22;48368;53.406;6.214;2023-09-18T11:13:36;20.50;99.90
62339;DHT22;48368;53.406;6.214;2023-09-18T11:21:30;20.50;99.90
62339;DHT22;48368;53.406;6.214;2023-09-18T11:24:07;20.50;99.90
62339;DHT22;48368;53.406;6.214;2023-09-18T11:26:39;20.60;99.90
62339;DHT22;48368;53.406;6.214;2023-09-18T11:29:08;20.60;99.90
62339;DHT22;48368;53.406;6.214;2023-09-18T11:31:55;20.70;99.90
62339;DHT22;48368;53.406;6.214;2023-09-18T11:34:29;20.70;99.90
62339;DHT22;48368;53.406;6.214;2023-09-18T11:37:18;20.70;99.90
62339;DHT22;48368;53.406;6.214;2023-09-18T11:39:44;20.60;99.90
62339;DHT22;48368;53.406;6.214;2023-09-18T11:42:17;20.60;99.90
62339;DHT22;48368;53.406;6.214;2023-09-18T11:44:44;20.70;99.90
62339;DHT22;48368;53.406;6.214;2023-09-18T11:47:17;20.80;99.90
62339;DHT22;48368;53.406;6.214;2023-09-18T11:49:58;21.00;99.90
62339;DHT22;48368;53.406;6.214;2023-09-18T11:52:28;21.10;99.90
62339;DHT22;48368;53.406;6.214;2023-09-18T11:54:57;21.20;99.90
62339;DHT22;48368;53.406;6.214;2023-09-18T11:57:23;21.20;99.90
62339;DHT22;48368;53.406;6.214;2023-09-18T11:59:49;21.20;99.90
62339;DHT22;48368;53.406;6.214;2023-09-18T12:02:29;21.20;99.90
62339;DHT22;48368;53.406;6.214;2023-09-18T12:05:11;21.20;99.90
62339;DHT22;48368;53.406;6.214;2023-09-18T12:07:37;21.40;99.90
62339;DHT22;48368;53.406;6.214;2023-09-18T12:10:05;21.50;99.90
62339;DHT22;48368;53.406;6.214;2023-09-18T12:12:32;21.60;99.90
62339;DHT22;48368;53.406;6.214;2023-09-18T12:14:58;21.60;99.90
62339;DHT22;48368;53.406;6.214;2023-09-18T12:17:23;21.60;99.90
62339;DHT22;48368;53.406;6.214;2023-09-18T12:19:53;21.60;99.90
62339;DHT22;48368;53.406;6.214;2023-09-18T12:22:29;21.40;99.90
62339;DHT22;48368;53.406;6.214;2023-09-18T12:25:14;21.30;99.90
62339;DHT22;48368;53.406;6.214;2023-09-18T12:27:43;21.20;99.90
62339;DHT22;48368;53.406;6.214;2023-09-18T12:30:10;21.20;99.90
62339;DHT22;48368;53.406;6.214;2023-09-18T12:32:37;21.30;99.90
62339;DHT22;48368;53.406;6.214;2023-09-18T12:35:07;21.30;99.90
62339;DHT22;48368;53.406;6.214;2023-09-18T12:37:34;21.30;99.90
62339;DHT22;48368;53.406;6.214;2023-09-18T12:40:00;21.20;99.90
62339;DHT22;48368;53.406;6.214;2023-09-18T12:42:26;21.20;99.90
62339;DHT22;48368;53.406;6.214;2023-09-18T12:44:52;21.40;99.90
62339;DHT22;48368;53.406;6.214;2023-09-18T12:47:18;21.60;99.90
62339;DHT22;48368;53.406;6.214;2023-09-18T12:49:44;21.60;99.90
62339;DHT22;48368;53.406;6.214;2023-09-18T12:52:09;21.60;99.90
62339;DHT22;48368;53.406;6.214;2023-09-18T12:54:43;21.50;99.90
62339;DHT22;48368;53.406;6.214;2023-09-18T12:57:20;21.50;99.90
62339;DHT22;48368;53.406;6.214;2023-09-18T12:59:46;21.50;99.90
62339;DHT22;48368;53.406;6.214;2023-09-18T13:02:17;21.40;99.90
62339;DHT22;48368;53.406;6.214;2023-09-18T13:04:51;21.30;99.90
62339;DHT22;48368;53.406;6.214;2023-09-18T13:07:17;21.40;99.90
62339;DHT22;48368;53.406;6.214;2023-09-18T13:10:00;21.40;99.90
62339;DHT22;48368;53.406;6.214;2023-09-18T13:12:46;21.30;99.90
62339;DHT22;48368;53.406;6.214;2023-09-18T13:15:12;21.30;99.90
62339;DHT22;48368;53.406;6.214;2023-09-18T13:17:43;21.40;99.90
62339;DHT22;48368;53.406;6.214;2023-09-18T13:20:22;21.50;99.90
62339;DHT22;48368;53.406;6.214;2023-09-18T13:22:54;21.40;99.90
62339;DHT22;48368;53.406;6.214;2023-09-18T13:25:21;21.40;99.90
62339;DHT22;48368;53.406;6.214;2023-09-18T13:27:48;21.40;99.90
62339;DHT22;48368;53.406;6.214;2023-09-18T13:30:14;21.40;99.90
62339;DHT22;48368;53.406;6.214;2023-09-18T13:32:43;21.40;99.90
62339;DHT22;48368;53.406;6.214;2023-09-18T13:35:10;21.40;99.90
62339;DHT22;48368;53.406;6.214;2023-09-18T13:37:39;21.50;99.90
62339;DHT22;48368;53.406;6.214;2023-09-18T13:40:05;21.40;99.90
62339;DHT22;48368;53.406;6.214;2023-09-18T13:42:33;21.50;99.90
62339;DHT22;48368;53.406;6.214;2023-09-18T13:44:59;21.40;99.90
62339;DHT22;48368;53.406;6.214;2023-09-18T13:47:30;21.40;99.90
62339;DHT22;48368;53.406;6.214;2023-09-18T13:49:56;21.50;99.90
62339;DHT22;48368;53.406;6.214;2023-09-18T13:52:32;21.50;99.90
62339;DHT22;48368;53.406;6.214;2023-09-18T13:55:04;21.50;99.90
62339;DHT22;48368;53.406;6.214;2023-09-18T13:57:34;21.60;99.90
62339;DHT22;48368;53.406;6.214;2023-09-18T14:00:02;21.60;99.90
62339;DHT22;48368;53.406;6.214;2023-09-18T14:02:43;21.70;99.90
62339;DHT22;48368;53.406;6.214;2023-09-18T14:05:09;21.50;99.90
62339;DHT22;48368;53.406;6.214;2023-09-18T14:07:37;21.50;99.90
62339;DHT22;48368;53.406;6.214;2023-09-18T14:10:07;21.30;99.90
62339;DHT22;48368;53.406;6.214;2023-09-18T14:12:33;21.30;99.90
62339;DHT22;48368;53.406;6.214;2023-09-18T14:14:58;21.10;99.90
62339;DHT22;48368;53.406;6.214;2023-09-18T14:17:25;21.00;99.90
62339;DHT22;48368;53.406;6.214;2023-09-18T14:19:51;20.90;99.90
62339;DHT22;48368;53.406;6.214;2023-09-18T14:22:19;20.90;99.90
62339;DHT22;48368;53.406;6.214;2023-09-18T14:24:45;20.80;99.90
62339;DHT22;48368;53.406;6.214;2023-09-18T14:27:11;20.80;99.90
62339;DHT22;48368;53.406;6.214;2023-09-18T14:29:38;20.70;99.90
62339;DHT22;48368;53.406;6.214;2023-09-18T14:32:04;20.70;99.90
62339;DHT22;48368;53.406;6.214;2023-09-18T14:34:34;20.70;99.90
62339;DHT22;48368;53.406;6.214;2023-09-18T14:37:04;20.60;99.90
62339;DHT22;48368;53.406;6.214;2023-09-18T14:39:32;20.60;99.90
62339;DHT22;48368;53.406;6.214;2023-09-18T14:41:58;20.60;99.90
62339;DHT22;48368;53.406;6.214;2023-09-18T14:44:27;20.70;99.90
62339;DHT22;48368;53.406;6.214;2023-09-18T14:46:56;20.70;99.90
62339;DHT22;48368;53.406;6.214;2023-09-18T14:49:22;20.70;99.90
62339;DHT22;48368;53.406;6.214;2023-09-18T14:51:47;20.60;99.90
62339;DHT22;48368;53.406;6.214;2023-09-18T14:54:15;20.50;99.90
62339;DHT22;48368;53.406;6.214;2023-09-18T14:56:40;20.40;99.90
62339;DHT22;48368;53.406;6.214;2023-09-18T14:59:06;20.40;99.90
62339;DHT22;48368;53.406;6.214;2023-09-18T15:01:33;20.30;99.90
62339;DHT22;48368;53.406;6.214;2023-09-18T15:03:59;20.30;99.90
62339;DHT22;48368;53.406;6.214;2023-09-18T15:06:24;20.20;99.90
62339;DHT22;48368;53.406;6.214;2023-09-18T15:08:51;20.10;99.90
62339;DHT22;48368;53.406;6.214;2023-09-18T15:11:17;20.10;99.90
62339;DHT22;48368;53.406;6.214;2023-09-18T15:13:43;20.10;99.90
62339;DHT22;48368;53.406;6.214;2023-09-18T15:16:12;20.10;99.90
62339;DHT22;48368;53.406;6.214;2023-09-18T15:18:38;20.10;99.90
62339;DHT22;48368;53.406;6.214;2023-09-18T15:21:05;20.10;99.90
62339;DHT22;48368;53.406;6.214;2023-09-18T15:23:31;20.20;99.90
62339;DHT22;48368;53.406;6.214;2023-09-18T15:25:56;20.20;99.90
62339;DHT22;48368;53.406;6.214;2023-09-18T15:28:25;20.30;99.90
62339;DHT22;48368;53.406;6.214;2023-09-18T15:30:53;20.30;99.90
62339;DHT22;48368;53.406;6.214;2023-09-18T15:33:22;20.30;99.90
62339;DHT22;48368;53.406;6.214;2023-09-18T15:35:49;20.30;99.90
62339;DHT22;48368;53.406;6.214;2023-09-18T15:38:15;20.30;99.90
62339;DHT22;48368;53.406;6.214;2023-09-18T15:40:40;20.20;99.90
62339;DHT22;48368;53.406;6.214;2023-09-18T15:43:06;20.20;99.90